sensor_id;sensor_type;location;lat;lon;timestamp;temperature;humidity
42615;DHT22;28754;47.700;7.924;2023-02-28T00:00:14;-3.10;99.90
42615;DHT22;28754;47.700;7.924;2023-02-28T00:03:01;-3.20;99.90
42615;DHT22;28754;47.700;7.924;2023-02-28T00:05:47;-3.30;99.90
42615;DHT22;28754;47.700;7.924;2023-02-28T00:08:34;-3.20;99.90
42615;DHT22;28754;47.700;7.924;2023-02-28T00:11:21;-3.20;99.90
42615;DHT22;28754;47.700;7.924;2023-02-28T00:14:08;-3.20;99.90
42615;DHT22;28754;47.700;7.924;2023-02-28T00:16:55;-3.30;99.90
42615;DHT22;28754;47.700;7.924;2023-02-28T00:19:42;-3.30;99.90
42615;DHT22;28754;47.700;7.924;2023-02-28T00:22:28;-3.30;99.90
42615;DHT22;28754;47.700;7.924;2023-02-28T00:25:18;-3.20;99.90
42615;DHT22;28754;47.700;7.924;2023-02-28T00:28:07;-3.20;99.90
42615;DHT22;28754;47.700;7.924;2023-02-28T00:30:53;-3.20;99.90
42615;DHT22;28754;47.700;7.924;2023-02-28T00:33:40;-3.30;99.90
42615;DHT22;28754;47.700;7.924;2023-02-28T00:36:27;-3.20;99.90
42615;DHT22;28754;47.700;7.924;2023-02-28T00:39:13;-3.20;99.90
42615;DHT22;28754;47.700;7.924;2023-02-28T00:42:00;-3.20;99.90
42615;DHT22;28754;47.700;7.924;2023-02-28T00:44:48;-3.30;99.90
42615;DHT22;28754;47.700;7.924;2023-02-28T00:47:35;-3.30;99.90
42615;DHT22;28754;47.700;7.924;2023-02-28T00:50:22;-3.20;99.90
42615;DHT22;28754;47.700;7.924;2023-02-28T00:53:08;-3.20;99.90
42615;DHT22;28754;47.700;7.924;2023-02-28T00:55:55;-3.20;99.90
42615;DHT22;28754;47.700;7.924;2023-02-28T00:58:42;-3.30;99.90
42615;DHT22;28754;47.700;7.924;2023-02-28T01:01:28;-3.30;99.90
42615;DHT22;28754;47.700;7.924;2023-02-28T01:04:15;-3.30;99.90
42615;DHT22;28754;47.700;7.924;2023-02-28T01:07:02;-3.30;99.90
42615;DHT22;28754;47.700;7.924;2023-02-28T01:09:48;-3.30;99.90
42615;DHT22;28754;47.700;7.924;2023-02-28T01:12:35;-3.30;99.90
42615;DHT22;28754;47.700;7.924;2023-02-28T01:15:22;-3.30;99.90
42615;DHT22;28754;47.700;7.924;2023-02-28T01:18:09;-3.30;99.90
42615;DHT22;28754;47.700;7.924;2023-02-28T01:20:55;-3.30;99.90
42615;DHT22;28754;47.700;7.924;2023-02-28T01:23:42;-3.40;99.90
42615;DHT22;28754;47.700;7.924;2023-02-28T01:26:31;-3.40;99.90
42615;DHT22;28754;47.700;7.924;2023-02-28T01:29:18;-3.30;99.90
42615;DHT22;28754;47.700;7.924;2023-02-28T01:32:05;-3.30;99.90
42615;DHT22;28754;47.700;7.924;2023-02-28T01:34:52;-3.30;99.90
42615;DHT22;28754;47.700;7.924;2023-02-28T01:37:39;-3.30;99.90
42615;DHT22;28754;47.700;7.924;2023-02-28T01:40:25;-3.30;99.90
42615;DHT22;28754;47.700;7.924;2023-02-28T01:43:27;-3.30;99.90
42615;DHT22;28754;47.700;7.924;2023-02-28T01:46:16;-3.30;99.90
42615;DHT22;28754;47.700;7.924;2023-02-28T01:49:13;-3.30;99.90
42615;DHT22;28754;47.700;7.924;2023-02-28T01:52:03;-3.30;99.90
42615;DHT22;28754;47.700;7.924;2023-02-28T01:54:52;-3.30;99.90
42615;DHT22;28754;47.700;7.924;2023-02-28T01:57:49;-3.30;99.90
42615;DHT22;28754;47.700;7.924;2023-02-28T02:00:40;-3.30;99.90
42615;DHT22;28754;47.700;7.924;2023-02-28T02:03:31;-3.30;99.90
42615;DHT22;28754;47.700;7.924;2023-02-28T02:06:18;-3.30;99.90
42615;DHT22;28754;47.700;7.924;2023-02-28T02:09:05;-3.20;99.90
42615;DHT22;28754;47.700;7.924;2023-02-28T02:11:55;-3.30;99.90
42615;DHT22;28754;47.700;7.924;2023-02-28T02:14:58;-3.20;99.90
42615;DHT22;28754;47.700;7.924;2023-02-28T02:17:56;-3.30;99.90
42615;DHT22;28754;47.700;7.924;2023-02-28T02:21:00;-3.40;99.90
42615;DHT22;28754;47.700;7.924;2023-02-28T02:27:25;-3.40;99.90
42615;DHT22;28754;47.700;7.924;2023-02-28T02:30:51;-3.30;99.90
42615;DHT22;28754;47.700;7.924;2023-02-28T02:40:32;-3.30;99.90
42615;DHT22;28754;47.700;7.924;2023-02-28T02:43:45;-3.30;99.90
42615;DHT22;28754;47.700;7.924;2023-02-28T02:46:41;-3.40;99.90
42615;DHT22;28754;47.700;7.924;2023-02-28T02:49:38;-3.40;99.90
42615;DHT22;28754;47.700;7.924;2023-02-28T02:52:36;-3.40;99.90
42615;DHT22;28754;47.700;7.924;2023-02-28T02:55:28;-3.40;99.90
42615;DHT22;28754;47.700;7.924;2023-02-28T02:58:17;-3.40;99.90
42615;DHT22;28754;47.700;7.924;2023-02-28T03:01:08;-3.40;99.90
42615;DHT22;28754;47.700;7.924;2023-02-28T03:04:05;-3.40;99.90
42615;DHT22;28754;47.700;7.924;2023-02-28T03:06:53;-3.40;99.90
42615;DHT22;28754;47.700;7.924;2023-02-28T03:09:51;-3.40;99.90
42615;DHT22;28754;47.700;7.924;2023-02-28T03:12:51;-3.40;99.90
42615;DHT22;28754;47.700;7.924;2023-02-28T03:24:03;-3.40;99.90
42615;DHT22;28754;47.700;7.924;2023-02-28T03:26:34;-3.40;99.90
42615;DHT22;28754;47.700;7.924;2023-02-28T03:29:43;-3.40;99.90
42615;DHT22;28754;47.700;7.924;2023-02-28T03:32:39;-3.40;99.90
42615;DHT22;28754;47.700;7.924;2023-02-28T03:35:42;-3.50;99.90
42615;DHT22;28754;47.700;7.924;2023-02-28T03:41:45;-3.50;99.90
42615;DHT22;28754;47.700;7.924;2023-02-28T03:44:45;-3.40;99.90
42615;DHT22;28754;47.700;7.924;2023-02-28T03:48:03;-3.50;99.90
42615;DHT22;28754;47.700;7.924;2023-02-28T03:50:54;-3.60;99.90
42615;DHT22;28754;47.700;7.924;2023-02-28T03:53:57;-3.60;99.90
42615;DHT22;28754;47.700;7.924;2023-02-28T03:57:03;-3.60;99.90
42615;DHT22;28754;47.700;7.924;2023-02-28T04:00:13;-3.50;99.90
42615;DHT22;28754;47.700;7.924;2023-02-28T04:03:04;-3.50;99.90
42615;DHT22;28754;47.700;7.924;2023-02-28T04:05:53;-3.60;99.90
42615;DHT22;28754;47.700;7.924;2023-02-28T04:08:41;-3.60;99.90
42615;DHT22;28754;47.700;7.924;2023-02-28T04:12:01;-3.60;99.90
42615;DHT22;28754;47.700;7.924;2023-02-28T04:14:47;-3.60;99.90
42615;DHT22;28754;47.700;7.924;2023-02-28T04:17:34;-3.60;99.90
42615;DHT22;28754;47.700;7.924;2023-02-28T04:20:21;-3.60;99.90
42615;DHT22;28754;47.700;7.924;2023-02-28T04:23:07;-3.50;99.90
42615;DHT22;28754;47.700;7.924;2023-02-28T04:25:55;-3.50;99.90
42615;DHT22;28754;47.700;7.924;2023-02-28T04:28:41;-3.60;99.90
42615;DHT22;28754;47.700;7.924;2023-02-28T04:31:28;-3.60;99.90
42615;DHT22;28754;47.700;7.924;2023-02-28T04:34:15;-3.60;99.90
42615;DHT22;28754;47.700;7.924;2023-02-28T04:37:03;-3.60;99.90
42615;DHT22;28754;47.700;7.924;2023-02-28T04:39:49;-3.50;99.90
42615;DHT22;28754;47.700;7.924;2023-02-28T04:42:36;-3.50;99.90
42615;DHT22;28754;47.700;7.924;2023-02-28T04:45:23;-3.50;99.90
42615;DHT22;28754;47.700;7.924;2023-02-28T04:48:09;-3.60;99.90
42615;DHT22;28754;47.700;7.924;2023-02-28T04:51:01;-3.50;99.90
42615;DHT22;28754;47.700;7.924;2023-02-28T04:53:49;-3.50;99.90
42615;DHT22;28754;47.700;7.924;2023-02-28T04:56:36;-3.50;99.90
42615;DHT22;28754;47.700;7.924;2023-02-28T04:59:23;-3.60;99.90
42615;DHT22;28754;47.700;7.924;2023-02-28T05:02:12;-3.60;99.90
42615;DHT22;28754;47.700;7.924;2023-02-28T05:05:02;-3.60;99.90
42615;DHT22;28754;47.700;7.924;2023-02-28T05:07:48;-3.50;99.90
42615;DHT22;28754;47.700;7.924;2023-02-28T05:10:36;-3.60;99.90
42615;DHT22;28754;47.700;7.924;2023-02-28T05:13:23;-3.60;99.90
42615;DHT22;28754;47.700;7.924;2023-02-28T05:16:09;-3.60;99.90
42615;DHT22;28754;47.700;7.924;2023-02-28T05:18:56;-3.60;99.90
42615;DHT22;28754;47.700;7.924;2023-02-28T05:21:51;-3.70;99.90
42615;DHT22;28754;47.700;7.924;2023-02-28T05:24:40;-3.70;99.90
42615;DHT22;28754;47.700;7.924;2023-02-28T05:27:28;-3.70;99.90
42615;DHT22;28754;47.700;7.924;2023-02-28T05:30:15;-3.70;99.90
42615;DHT22;28754;47.700;7.924;2023-02-28T05:33:02;-3.70;99.90
42615;DHT22;28754;47.700;7.924;2023-02-28T05:35:48;-3.60;99.90
42615;DHT22;28754;47.700;7.924;2023-02-28T05:38:35;-3.60;99.90
42615;DHT22;28754;47.700;7.924;2023-02-28T05:41:22;-3.60;99.90
42615;DHT22;28754;47.700;7.924;2023-02-28T05:44:09;-3.60;99.90
42615;DHT22;28754;47.700;7.924;2023-02-28T05:46:56;-3.70;99.90
42615;DHT22;28754;47.700;7.924;2023-02-28T05:49:43;-3.70;99.90
42615;DHT22;28754;47.700;7.924;2023-02-28T05:52:29;-3.60;99.90
42615;DHT22;28754;47.700;7.924;2023-02-28T05:55:16;-3.60;99.90
42615;DHT22;28754;47.700;7.924;2023-02-28T05:58:03;-3.60;99.90
42615;DHT22;28754;47.700;7.924;2023-02-28T06:00:50;-3.60;99.90
42615;DHT22;28754;47.700;7.924;2023-02-28T06:03:36;-3.60;99.90
42615;DHT22;28754;47.700;7.924;2023-02-28T06:06:23;-3.60;99.90
42615;DHT22;28754;47.700;7.924;2023-02-28T06:09:10;-3.60;99.90
42615;DHT22;28754;47.700;7.924;2023-02-28T06:12:05;-3.60;99.90
42615;DHT22;28754;47.700;7.924;2023-02-28T06:14:56;-3.70;99.90
42615;DHT22;28754;47.700;7.924;2023-02-28T06:17:45;-3.60;99.90
42615;DHT22;28754;47.700;7.924;2023-02-28T06:20:34;-3.60;99.90
42615;DHT22;28754;47.700;7.924;2023-02-28T06:23:22;-3.60;99.90
42615;DHT22;28754;47.700;7.924;2023-02-28T06:26:19;-3.60;99.90
42615;DHT22;28754;47.700;7.924;2023-02-28T06:29:08;-3.60;99.90
42615;DHT22;28754;47.700;7.924;2023-02-28T06:31:57;-3.60;99.90
42615;DHT22;28754;47.700;7.924;2023-02-28T06:34:50;-3.50;99.90
42615;DHT22;28754;47.700;7.924;2023-02-28T06:37:37;-3.40;99.90
42615;DHT22;28754;47.700;7.924;2023-02-28T06:40:23;-3.40;99.90
42615;DHT22;28754;47.700;7.924;2023-02-28T06:43:10;-3.40;99.90
42615;DHT22;28754;47.700;7.924;2023-02-28T06:46:01;-3.40;99.90
42615;DHT22;28754;47.700;7.924;2023-02-28T06:48:50;-3.40;99.90
42615;DHT22;28754;47.700;7.924;2023-02-28T06:51:38;-3.40;99.90
42615;DHT22;28754;47.700;7.924;2023-02-28T06:54:27;-3.40;99.90
42615;DHT22;28754;47.700;7.924;2023-02-28T06:57:14;-3.30;99.90
42615;DHT22;28754;47.700;7.924;2023-02-28T07:00:04;-3.30;99.90
42615;DHT22;28754;47.700;7.924;2023-02-28T07:02:53;-3.30;99.90
42615;DHT22;28754;47.700;7.924;2023-02-28T07:05:41;-3.40;99.90
42615;DHT22;28754;47.700;7.924;2023-02-28T07:08:28;-3.40;99.90
42615;DHT22;28754;47.700;7.924;2023-02-28T07:11:15;-3.40;99.90
42615;DHT22;28754;47.700;7.924;2023-02-28T07:14:02;-3.30;99.90
42615;DHT22;28754;47.700;7.924;2023-02-28T07:16:49;-3.30;99.90
42615;DHT22;28754;47.700;7.924;2023-02-28T07:19:36;-3.40;99.90
42615;DHT22;28754;47.700;7.924;2023-02-28T07:22:23;-3.30;99.90
42615;DHT22;28754;47.700;7.924;2023-02-28T07:25:11;-3.30;99.90
42615;DHT22;28754;47.700;7.924;2023-02-28T07:27:57;-3.40;99.90
42615;DHT22;28754;47.700;7.924;2023-02-28T07:30:45;-3.30;99.90
42615;DHT22;28754;47.700;7.924;2023-02-28T07:33:32;-3.30;99.90
42615;DHT22;28754;47.700;7.924;2023-02-28T07:36:20;-3.30;99.90
42615;DHT22;28754;47.700;7.924;2023-02-28T07:39:07;-3.30;99.90
42615;DHT22;28754;47.700;7.924;2023-02-28T07:41:56;-3.30;99.90
42615;DHT22;28754;47.700;7.924;2023-02-28T07:44:46;-3.20;99.90
42615;DHT22;28754;47.700;7.924;2023-02-28T07:47:33;-3.30;99.90
42615;DHT22;28754;47.700;7.924;2023-02-28T07:50:19;-3.20;99.90
42615;DHT22;28754;47.700;7.924;2023-02-28T07:53:06;-3.20;99.90
42615;DHT22;28754;47.700;7.924;2023-02-28T07:55:57;-3.10;99.90
42615;DHT22;28754;47.700;7.924;2023-02-28T07:58:45;-3.10;99.90
42615;DHT22;28754;47.700;7.924;2023-02-28T08:01:32;-3.00;99.90
42615;DHT22;28754;47.700;7.924;2023-02-28T08:04:19;-3.00;99.90
42615;DHT22;28754;47.700;7.924;2023-02-28T08:07:05;-3.00;99.90
42615;DHT22;28754;47.700;7.924;2023-02-28T08:09:52;-3.00;99.90
42615;DHT22;28754;47.700;7.924;2023-02-28T08:12:39;-3.00;99.90
42615;DHT22;28754;47.700;7.924;2023-02-28T08:15:26;-3.00;99.90
42615;DHT22;28754;47.700;7.924;2023-02-28T08:18:13;-3.00;99.90
42615;DHT22;28754;47.700;7.924;2023-02-28T08:21:06;-3.10;99.90
42615;DHT22;28754;47.700;7.924;2023-02-28T08:23:53;-3.00;99.90
42615;DHT22;28754;47.700;7.924;2023-02-28T08:26:40;-3.00;99.90
42615;DHT22;28754;47.700;7.924;2023-02-28T08:29:27;-2.90;99.90
42615;DHT22;28754;47.700;7.924;2023-02-28T08:32:14;-2.90;99.90
42615;DHT22;28754;47.700;7.924;2023-02-28T08:35:00;-2.80;99.90
42615;DHT22;28754;47.700;7.924;2023-02-28T08:37:49;-2.80;99.90
42615;DHT22;28754;47.700;7.924;2023-02-28T08:40:36;-2.80;99.90
42615;DHT22;28754;47.700;7.924;2023-02-28T08:43:23;-2.70;99.90
42615;DHT22;28754;47.700;7.924;2023-02-28T08:46:13;-2.60;99.90
42615;DHT22;28754;47.700;7.924;2023-02-28T08:49:03;-2.50;99.90
42615;DHT22;28754;47.700;7.924;2023-02-28T08:51:50;-2.50;99.90
42615;DHT22;28754;47.700;7.924;2023-02-28T08:54:37;-2.50;99.90
42615;DHT22;28754;47.700;7.924;2023-02-28T08:57:24;-2.50;99.90
42615;DHT22;28754;47.700;7.924;2023-02-28T09:00:12;-2.40;99.90
42615;DHT22;28754;47.700;7.924;2023-02-28T09:02:59;-2.30;99.90
42615;DHT22;28754;47.700;7.924;2023-02-28T09:05:57;-2.30;99.90
42615;DHT22;28754;47.700;7.924;2023-02-28T09:08:46;-2.20;99.90
42615;DHT22;28754;47.700;7.924;2023-02-28T09:11:33;-2.30;99.90
42615;DHT22;28754;47.700;7.924;2023-02-28T09:14:21;-2.00;99.90
42615;DHT22;28754;47.700;7.924;2023-02-28T09:17:07;-2.10;99.90
42615;DHT22;28754;47.700;7.924;2023-02-28T09:19:54;-2.10;99.90
42615;DHT22;28754;47.700;7.924;2023-02-28T09:22:41;-2.20;99.90
42615;DHT22;28754;47.700;7.924;2023-02-28T09:25:27;-2.00;99.90
42615;DHT22;28754;47.700;7.924;2023-02-28T09:28:15;-2.10;99.90
42615;DHT22;28754;47.700;7.924;2023-02-28T09:31:03;-2.00;99.90
42615;DHT22;28754;47.700;7.924;2023-02-28T09:33:53;-2.10;99.90
42615;DHT22;28754;47.700;7.924;2023-02-28T09:36:41;-2.00;99.90
42615;DHT22;28754;47.700;7.924;2023-02-28T09:39:28;-2.00;99.90
42615;DHT22;28754;47.700;7.924;2023-02-28T09:42:22;-2.00;99.90
42615;DHT22;28754;47.700;7.924;2023-02-28T09:45:37;-1.90;99.90
42615;DHT22;28754;47.700;7.924;2023-02-28T09:48:40;-1.70;99.90
42615;DHT22;28754;47.700;7.924;2023-02-28T09:54:49;-1.70;99.90
42615;DHT22;28754;47.700;7.924;2023-02-28T09:57:40;-1.60;99.90
42615;DHT22;28754;47.700;7.924;2023-02-28T10:00:34;-1.60;99.90
42615;DHT22;28754;47.700;7.924;2023-02-28T10:03:47;-1.60;99.90
42615;DHT22;28754;47.700;7.924;2023-02-28T10:06:48;-1.60;99.90
42615;DHT22;28754;47.700;7.924;2023-02-28T10:09:37;-1.50;99.90
42615;DHT22;28754;47.700;7.924;2023-02-28T10:12:24;-1.30;99.90
42615;DHT22;28754;47.700;7.924;2023-02-28T10:15:15;-1.20;99.90
42615;DHT22;28754;47.700;7.924;2023-02-28T10:18:11;-1.40;99.90
42615;DHT22;28754;47.700;7.924;2023-02-28T10:21:08;-1.40;99.90
42615;DHT22;28754;47.700;7.924;2023-02-28T10:24:23;-1.30;99.90
42615;DHT22;28754;47.700;7.924;2023-02-28T10:27:18;-1.20;99.90
42615;DHT22;28754;47.700;7.924;2023-02-28T10:30:10;-1.20;99.90
42615;DHT22;28754;47.700;7.924;2023-02-28T10:32:58;-1.10;99.90
42615;DHT22;28754;47.700;7.924;2023-02-28T10:35:45;-0.90;99.90
42615;DHT22;28754;47.700;7.924;2023-02-28T10:38:37;-0.80;99.90
42615;DHT22;28754;47.700;7.924;2023-02-28T10:41:29;-0.70;99.90
42615;DHT22;28754;47.700;7.924;2023-02-28T10:44:22;-0.70;99.90
42615;DHT22;28754;47.700;7.924;2023-02-28T10:47:17;-0.70;99.90
42615;DHT22;28754;47.700;7.924;2023-02-28T10:50:08;-0.60;99.90
42615;DHT22;28754;47.700;7.924;2023-02-28T11:01:55;-0.70;99.90
42615;DHT22;28754;47.700;7.924;2023-02-28T11:04:42;-0.70;99.90
42615;DHT22;28754;47.700;7.924;2023-02-28T11:07:31;-0.70;99.90
42615;DHT22;28754;47.700;7.924;2023-02-28T11:10:20;-0.80;99.90
42615;DHT22;28754;47.700;7.924;2023-02-28T11:13:33;-0.90;99.90
42615;DHT22;28754;47.700;7.924;2023-02-28T11:16:23;-0.80;99.90
42615;DHT22;28754;47.700;7.924;2023-02-28T11:19:26;-0.80;99.90
42615;DHT22;28754;47.700;7.924;2023-02-28T11:22:20;-0.70;99.90
42615;DHT22;28754;47.700;7.924;2023-02-28T11:25:19;-0.50;99.90
42615;DHT22;28754;47.700;7.924;2023-02-28T11:28:32;-0.50;99.90
42615;DHT22;28754;47.700;7.924;2023-02-28T11:31:21;-0.40;99.90
42615;DHT22;28754;47.700;7.924;2023-02-28T11:34:26;-0.50;99.90
42615;DHT22;28754;47.700;7.924;2023-02-28T11:37:18;-0.40;99.90
42615;DHT22;28754;47.700;7.924;2023-02-28T11:40:14;-0.20;99.90
42615;DHT22;28754;47.700;7.924;2023-02-28T11:43:16;-0.20;99.90
42615;DHT22;28754;47.700;7.924;2023-02-28T11:46:44;-0.30;99.90
42615;DHT22;28754;47.700;7.924;2023-02-28T11:56:09;0.00;99.90
42615;DHT22;28754;47.700;7.924;2023-02-28T12:03:14;0.10;99.90
42615;DHT22;28754;47.700;7.924;2023-02-28T12:09:34;0.00;99.90
42615;DHT22;28754;47.700;7.924;2023-02-28T12:12:53;0.00;99.90
42615;DHT22;28754;47.700;7.924;2023-02-28T12:16:12;0.10;99.90
42615;DHT22;28754;47.700;7.924;2023-02-28T12:23:25;0.30;99.90
42615;DHT22;28754;47.700;7.924;2023-02-28T12:26:44;0.20;99.90
42615;DHT22;28754;47.700;7.924;2023-02-28T12:29:54;0.20;99.90
42615;DHT22;28754;47.700;7.924;2023-02-28T12:33:04;0.40;99.90
42615;DHT22;28754;47.700;7.924;2023-02-28T12:35:57;0.90;99.90
42615;DHT22;28754;47.700;7.924;2023-02-28T12:39:16;1.30;99.90
42615;DHT22;28754;47.700;7.924;2023-02-28T12:42:10;1.90;99.90
42615;DHT22;28754;47.700;7.924;2023-02-28T12:45:09;2.30;99.90
42615;DHT22;28754;47.700;7.924;2023-02-28T12:48:43;1.80;99.90
42615;DHT22;28754;47.700;7.924;2023-02-28T12:51:34;1.30;99.90
42615;DHT22;28754;47.700;7.924;2023-02-28T13:11:33;3.70;99.90
42615;DHT22;28754;47.700;7.924;2023-02-28T13:17:24;1.90;99.90
42615;DHT22;28754;47.700;7.924;2023-02-28T13:20:18;1.90;99.90
42615;DHT22;28754;47.700;7.924;2023-02-28T13:23:55;2.10;99.90
42615;DHT22;28754;47.700;7.924;2023-02-28T13:29:42;3.10;99.90
42615;DHT22;28754;47.700;7.924;2023-02-28T13:32:32;3.20;99.90
42615;DHT22;28754;47.700;7.924;2023-02-28T13:35:38;3.60;99.90
42615;DHT22;28754;47.700;7.924;2023-02-28T13:38:36;4.00;99.90
42615;DHT22;28754;47.700;7.924;2023-02-28T13:44:22;5.30;99.90
42615;DHT22;28754;47.700;7.924;2023-02-28T13:47:18;6.10;99.90
42615;DHT22;28754;47.700;7.924;2023-02-28T13:59:39;3.70;99.90
42615;DHT22;28754;47.700;7.924;2023-02-28T14:03:05;3.30;99.90
42615;DHT22;28754;47.700;7.924;2023-02-28T14:06:29;3.00;99.90
42615;DHT22;28754;47.700;7.924;2023-02-28T14:09:23;3.70;99.90
42615;DHT22;28754;47.700;7.924;2023-02-28T14:15:49;2.90;99.90
42615;DHT22;28754;47.700;7.924;2023-02-28T14:18:50;2.40;99.90
42615;DHT22;28754;47.700;7.924;2023-02-28T14:25:40;2.70;99.90
42615;DHT22;28754;47.700;7.924;2023-02-28T14:38:57;4.30;99.90
42615;DHT22;28754;47.700;7.924;2023-02-28T14:41:44;4.70;99.90
42615;DHT22;28754;47.700;7.924;2023-02-28T14:44:32;4.30;99.90
42615;DHT22;28754;47.700;7.924;2023-02-28T14:47:18;5.40;99.90
42615;DHT22;28754;47.700;7.924;2023-02-28T14:50:05;5.60;99.90
42615;DHT22;28754;47.700;7.924;2023-02-28T14:52:55;5.10;99.90
42615;DHT22;28754;47.700;7.924;2023-02-28T14:55:45;4.80;99.90
42615;DHT22;28754;47.700;7.924;2023-02-28T14:58:33;6.10;99.90
42615;DHT22;28754;47.700;7.924;2023-02-28T15:01:22;7.00;99.90
42615;DHT22;28754;47.700;7.924;2023-02-28T15:04:22;6.30;99.90
42615;DHT22;28754;47.700;7.924;2023-02-28T15:07:14;5.40;99.90
42615;DHT22;28754;47.700;7.924;2023-02-28T15:13:09;5.50;99.90
42615;DHT22;28754;47.700;7.924;2023-02-28T15:16:01;5.90;99.90
42615;DHT22;28754;47.700;7.924;2023-02-28T15:18:53;5.70;99.90
42615;DHT22;28754;47.700;7.924;2023-02-28T15:21:46;5.00;99.90
42615;DHT22;28754;47.700;7.924;2023-02-28T15:24:42;4.50;99.90
42615;DHT22;28754;47.700;7.924;2023-02-28T15:27:40;4.00;99.90
42615;DHT22;28754;47.700;7.924;2023-02-28T15:30:31;3.40;99.90
42615;DHT22;28754;47.700;7.924;2023-02-28T15:33:27;2.80;99.90
42615;DHT22;28754;47.700;7.924;2023-02-28T15:36:19;3.90;99.90
42615;DHT22;28754;47.700;7.924;2023-02-28T15:39:24;4.10;99.90
42615;DHT22;28754;47.700;7.924;2023-02-28T15:42:20;4.20;99.90
42615;DHT22;28754;47.700;7.924;2023-02-28T15:45:32;3.30;99.90
42615;DHT22;28754;47.700;7.924;2023-02-28T15:48:31;3.30;99.90
42615;DHT22;28754;47.700;7.924;2023-02-28T15:54:23;2.50;99.90
42615;DHT22;28754;47.700;7.924;2023-02-28T15:57:23;2.00;99.90
42615;DHT22;28754;47.700;7.924;2023-02-28T16:00:20;2.00;99.90
42615;DHT22;28754;47.700;7.924;2023-02-28T16:03:25;2.60;99.90
42615;DHT22;28754;47.700;7.924;2023-02-28T16:09:06;3.00;99.90
42615;DHT22;28754;47.700;7.924;2023-02-28T16:11:56;3.00;99.90
42615;DHT22;28754;47.700;7.924;2023-02-28T16:14:50;2.70;99.90
42615;DHT22;28754;47.700;7.924;2023-02-28T16:17:39;2.70;99.90
42615;DHT22;28754;47.700;7.924;2023-02-28T16:20:30;2.50;99.90
42615;DHT22;28754;47.700;7.924;2023-02-28T16:23:17;2.40;99.90
42615;DHT22;28754;47.700;7.924;2023-02-28T16:26:04;2.20;99.90
42615;DHT22;28754;47.700;7.924;2023-02-28T16:28:53;1.80;99.90
42615;DHT22;28754;47.700;7.924;2023-02-28T16:31:39;1.60;99.90
42615;DHT22;28754;47.700;7.924;2023-02-28T16:34:27;1.40;99.90
42615;DHT22;28754;47.700;7.924;2023-02-28T16:37:16;1.00;99.90
42615;DHT22;28754;47.700;7.924;2023-02-28T16:40:04;0.60;99.90
42615;DHT22;28754;47.700;7.924;2023-02-28T16:42:58;0.40;99.90
42615;DHT22;28754;47.700;7.924;2023-02-28T16:45:46;0.20;99.90
42615;DHT22;28754;47.700;7.924;2023-02-28T16:48:33;0.10;99.90
42615;DHT22;28754;47.700;7.924;2023-02-28T16:51:20;-0.10;99.90
42615;DHT22;28754;47.700;7.924;2023-02-28T16:54:06;-0.20;99.90
42615;DHT22;28754;47.700;7.924;2023-02-28T16:56:56;-0.30;99.90
42615;DHT22;28754;47.700;7.924;2023-02-28T16:59:55;-0.40;99.90
42615;DHT22;28754;47.700;7.924;2023-02-28T17:02:54;-0.40;99.90
42615;DHT22;28754;47.700;7.924;2023-02-28T17:05:42;-0.50;99.90
42615;DHT22;28754;47.700;7.924;2023-02-28T17:08:29;-0.60;99.90
42615;DHT22;28754;47.700;7.924;2023-02-28T17:11:21;-0.60;99.90
42615;DHT22;28754;47.700;7.924;2023-02-28T17:14:13;-0.60;99.90
42615;DHT22;28754;47.700;7.924;2023-02-28T17:17:00;-0.70;99.90
42615;DHT22;28754;47.700;7.924;2023-02-28T17:19:48;-0.80;99.90
42615;DHT22;28754;47.700;7.924;2023-02-28T17:22:34;-0.80;99.90
42615;DHT22;28754;47.700;7.924;2023-02-28T17:25:22;-0.80;99.90
42615;DHT22;28754;47.700;7.924;2023-02-28T17:28:10;-0.80;99.90
42615;DHT22;28754;47.700;7.924;2023-02-28T17:30:56;-0.80;99.90
42615;DHT22;28754;47.700;7.924;2023-02-28T17:33:43;-0.80;99.90
42615;DHT22;28754;47.700;7.924;2023-02-28T17:36:30;-0.80;99.90
42615;DHT22;28754;47.700;7.924;2023-02-28T17:39:20;-0.80;99.90
42615;DHT22;28754;47.700;7.924;2023-02-28T17:42:12;-0.90;99.90
42615;DHT22;28754;47.700;7.924;2023-02-28T17:44:59;-0.90;99.90
42615;DHT22;28754;47.700;7.924;2023-02-28T17:47:48;-0.90;99.90
42615;DHT22;28754;47.700;7.924;2023-02-28T17:50:36;-1.00;99.90
42615;DHT22;28754;47.700;7.924;2023-02-28T17:53:23;-1.00;99.90
42615;DHT22;28754;47.700;7.924;2023-02-28T17:56:15;-1.00;99.90
42615;DHT22;28754;47.700;7.924;2023-02-28T17:59:09;-1.00;99.90
42615;DHT22;28754;47.700;7.924;2023-02-28T18:01:56;-1.00;99.90
42615;DHT22;28754;47.700;7.924;2023-02-28T18:04:43;-1.10;99.90
42615;DHT22;28754;47.700;7.924;2023-02-28T18:07:30;-1.10;99.90
42615;DHT22;28754;47.700;7.924;2023-02-28T18:10:18;-1.10;99.90
42615;DHT22;28754;47.700;7.924;2023-02-28T18:13:09;-1.20;99.90
42615;DHT22;28754;47.700;7.924;2023-02-28T18:15:57;-1.20;99.90
42615;DHT22;28754;47.700;7.924;2023-02-28T18:18:44;-1.20;99.90
42615;DHT22;28754;47.700;7.924;2023-02-28T18:21:31;-1.20;99.90
42615;DHT22;28754;47.700;7.924;2023-02-28T18:24:20;-1.20;99.90
42615;DHT22;28754;47.700;7.924;2023-02-28T18:27:08;-1.10;99.90
42615;DHT22;28754;47.700;7.924;2023-02-28T18:29:56;-1.10;99.90
42615;DHT22;28754;47.700;7.924;2023-02-28T18:32:43;-1.10;99.90
42615;DHT22;28754;47.700;7.924;2023-02-28T18:35:30;-1.10;99.90
42615;DHT22;28754;47.700;7.924;2023-02-28T18:38:20;-1.10;99.90
42615;DHT22;28754;47.700;7.924;2023-02-28T18:41:07;-1.10;99.90
42615;DHT22;28754;47.700;7.924;2023-02-28T18:43:55;-1.10;99.90
42615;DHT22;28754;47.700;7.924;2023-02-28T18:46:41;-1.20;99.90
42615;DHT22;28754;47.700;7.924;2023-02-28T18:49:30;-1.20;99.90
42615;DHT22;28754;47.700;7.924;2023-02-28T18:52:19;-1.20;99.90
42615;DHT22;28754;47.700;7.924;2023-02-28T18:55:06;-1.20;99.90
42615;DHT22;28754;47.700;7.924;2023-02-28T18:57:54;-1.20;99.90
42615;DHT22;28754;47.700;7.924;2023-02-28T19:00:41;-1.20;99.90
42615;DHT22;28754;47.700;7.924;2023-02-28T19:03:29;-1.20;99.90
42615;DHT22;28754;47.700;7.924;2023-02-28T19:06:17;-1.20;99.90
42615;DHT22;28754;47.700;7.924;2023-02-28T19:09:04;-1.10;99.90
42615;DHT22;28754;47.700;7.924;2023-02-28T19:11:51;-1.20;99.90
42615;DHT22;28754;47.700;7.924;2023-02-28T19:14:38;-1.10;99.90
42615;DHT22;28754;47.700;7.924;2023-02-28T19:17:25;-1.10;99.90
42615;DHT22;28754;47.700;7.924;2023-02-28T19:20:12;-1.10;99.90
42615;DHT22;28754;47.700;7.924;2023-02-28T19:22:59;-1.10;99.90
42615;DHT22;28754;47.700;7.924;2023-02-28T19:25:46;-1.10;99.90
42615;DHT22;28754;47.700;7.924;2023-02-28T19:28:33;-1.10;99.90
42615;DHT22;28754;47.700;7.924;2023-02-28T19:31:22;-1.10;99.90
42615;DHT22;28754;47.700;7.924;2023-02-28T19:34:10;-1.10;99.90
42615;DHT22;28754;47.700;7.924;2023-02-28T19:37:00;-1.10;99.90
42615;DHT22;28754;47.700;7.924;2023-02-28T19:39:47;-1.10;99.90
42615;DHT22;28754;47.700;7.924;2023-02-28T19:42:34;-1.20;99.90
42615;DHT22;28754;47.700;7.924;2023-02-28T19:45:23;-1.20;99.90
42615;DHT22;28754;47.700;7.924;2023-02-28T19:48:10;-1.20;99.90
42615;DHT22;28754;47.700;7.924;2023-02-28T19:51:10;-1.20;99.90
42615;DHT22;28754;47.700;7.924;2023-02-28T19:54:02;-1.20;99.90
42615;DHT22;28754;47.700;7.924;2023-02-28T19:56:54;-1.20;99.90
42615;DHT22;28754;47.700;7.924;2023-02-28T19:59:43;-1.30;99.90
42615;DHT22;28754;47.700;7.924;2023-02-28T20:02:30;-1.30;99.90